sensor_id;sensor_type;location;lat;lon;timestamp;temperature;humidity
41437;DHT22;27178;49.460;10.850;2024-02-14T00:01:13;9.10;75.00
41437;DHT22;27178;49.460;10.850;2024-02-14T00:03:41;9.10;75.00
41437;DHT22;27178;49.460;10.850;2024-02-14T00:06:11;9.10;74.80
41437;DHT22;27178;49.460;10.850;2024-02-14T00:08:40;9.10;74.70
41437;DHT22;27178;49.460;10.850;2024-02-14T00:11:09;9.10;74.70
41437;DHT22;27178;49.460;10.850;2024-02-14T00:13:37;9.10;74.70
41437;DHT22;27178;49.460;10.850;2024-02-14T00:16:06;9.00;74.70
41437;DHT22;27178;49.460;10.850;2024-02-14T00:18:35;9.10;75.00
41437;DHT22;27178;49.460;10.850;2024-02-14T00:21:03;9.00;74.70
41437;DHT22;27178;49.460;10.850;2024-02-14T00:23:34;9.00;74.70
41437;DHT22;27178;49.460;10.850;2024-02-14T00:26:02;9.00;74.70
41437;DHT22;27178;49.460;10.850;2024-02-14T00:28:31;9.00;74.60
41437;DHT22;27178;49.460;10.850;2024-02-14T00:30:59;9.00;74.70
41437;DHT22;27178;49.460;10.850;2024-02-14T00:33:27;9.00;74.90
41437;DHT22;27178;49.460;10.850;2024-02-14T00:35:56;9.00;75.00
41437;DHT22;27178;49.460;10.850;2024-02-14T00:38:24;9.00;75.00
41437;DHT22;27178;49.460;10.850;2024-02-14T00:40:54;9.00;75.00
41437;DHT22;27178;49.460;10.850;2024-02-14T00:43:22;9.00;75.00
41437;DHT22;27178;49.460;10.850;2024-02-14T00:45:50;9.00;75.00
41437;DHT22;27178;49.460;10.850;2024-02-14T00:48:19;9.00;75.00
41437;DHT22;27178;49.460;10.850;2024-02-14T00:50:47;9.00;74.90
41437;DHT22;27178;49.460;10.850;2024-02-14T00:53:15;9.00;74.80
41437;DHT22;27178;49.460;10.850;2024-02-14T00:55:44;8.90;74.70
41437;DHT22;27178;49.460;10.850;2024-02-14T00:58:14;8.90;74.70
41437;DHT22;27178;49.460;10.850;2024-02-14T01:00:42;8.90;74.70
41437;DHT22;27178;49.460;10.850;2024-02-14T01:03:10;8.90;74.80
41437;DHT22;27178;49.460;10.850;2024-02-14T01:05:40;8.80;74.90
41437;DHT22;27178;49.460;10.850;2024-02-14T01:08:08;8.80;74.80
41437;DHT22;27178;49.460;10.850;2024-02-14T01:10:37;8.80;74.70
41437;DHT22;27178;49.460;10.850;2024-02-14T01:13:05;8.80;74.70
41437;DHT22;27178;49.460;10.850;2024-02-14T01:15:35;8.80;74.60
41437;DHT22;27178;49.460;10.850;2024-02-14T01:18:04;8.70;74.80
41437;DHT22;27178;49.460;10.850;2024-02-14T01:20:32;8.70;74.80
41437;DHT22;27178;49.460;10.850;2024-02-14T01:23:01;8.70;75.00
41437;DHT22;27178;49.460;10.850;2024-02-14T01:25:29;8.60;75.10
41437;DHT22;27178;49.460;10.850;2024-02-14T01:27:57;8.60;75.30
41437;DHT22;27178;49.460;10.850;2024-02-14T01:30:26;8.60;75.30
41437;DHT22;27178;49.460;10.850;2024-02-14T01:32:56;8.60;75.50
41437;DHT22;27178;49.460;10.850;2024-02-14T01:35:24;8.60;75.50
41437;DHT22;27178;49.460;10.850;2024-02-14T01:37:53;8.60;75.50
41437;DHT22;27178;49.460;10.850;2024-02-14T01:40:22;8.60;75.70
41437;DHT22;27178;49.460;10.850;2024-02-14T01:42:50;8.60;75.70
41437;DHT22;27178;49.460;10.850;2024-02-14T01:45:19;8.60;75.80
41437;DHT22;27178;49.460;10.850;2024-02-14T01:47:48;8.60;75.90
41437;DHT22;27178;49.460;10.850;2024-02-14T01:50:18;8.60;76.90
41437;DHT22;27178;49.460;10.850;2024-02-14T01:52:56;8.60;75.80
41437;DHT22;27178;49.460;10.850;2024-02-14T01:55:27;8.60;75.70
41437;DHT22;27178;49.460;10.850;2024-02-14T01:57:56;8.60;75.70
41437;DHT22;27178;49.460;10.850;2024-02-14T02:00:25;8.60;75.60
41437;DHT22;27178;49.460;10.850;2024-02-14T02:02:54;8.60;75.50
41437;DHT22;27178;49.460;10.850;2024-02-14T02:05:24;8.60;75.30
41437;DHT22;27178;49.460;10.850;2024-02-14T02:07:53;8.50;75.30
41437;DHT22;27178;49.460;10.850;2024-02-14T02:10:21;8.50;75.40
41437;DHT22;27178;49.460;10.850;2024-02-14T02:12:58;8.40;75.50
41437;DHT22;27178;49.460;10.850;2024-02-14T02:15:26;8.40;75.50
41437;DHT22;27178;49.460;10.850;2024-02-14T02:17:55;8.40;75.70
41437;DHT22;27178;49.460;10.850;2024-02-14T02:20:25;8.40;75.80
41437;DHT22;27178;49.460;10.850;2024-02-14T02:22:56;8.40;75.80
41437;DHT22;27178;49.460;10.850;2024-02-14T02:25:24;8.30;75.80
41437;DHT22;27178;49.460;10.850;2024-02-14T02:27:54;8.30;75.80
41437;DHT22;27178;49.460;10.850;2024-02-14T02:30:23;8.30;76.00
41437;DHT22;27178;49.460;10.850;2024-02-14T02:32:52;8.30;77.00
41437;DHT22;27178;49.460;10.850;2024-02-14T02:35:20;8.30;76.10
41437;DHT22;27178;49.460;10.850;2024-02-14T02:37:51;8.30;76.10
41437;DHT22;27178;49.460;10.850;2024-02-14T02:40:22;8.30;76.10
41437;DHT22;27178;49.460;10.850;2024-02-14T02:42:51;8.40;76.10
41437;DHT22;27178;49.460;10.850;2024-02-14T02:45:19;8.30;76.10
41437;DHT22;27178;49.460;10.850;2024-02-14T02:47:48;8.30;76.10
41437;DHT22;27178;49.460;10.850;2024-02-14T02:50:19;8.30;76.30
41437;DHT22;27178;49.460;10.850;2024-02-14T02:52:48;8.30;76.20
41437;DHT22;27178;49.460;10.850;2024-02-14T02:55:17;8.30;76.10
41437;DHT22;27178;49.460;10.850;2024-02-14T02:57:47;8.40;76.30
41437;DHT22;27178;49.460;10.850;2024-02-14T03:00:16;8.30;76.10
41437;DHT22;27178;49.460;10.850;2024-02-14T03:02:48;8.30;76.00
41437;DHT22;27178;49.460;10.850;2024-02-14T03:05:17;8.30;76.00
41437;DHT22;27178;49.460;10.850;2024-02-14T03:07:46;8.30;76.10
41437;DHT22;27178;49.460;10.850;2024-02-14T03:10:17;8.30;76.10
41437;DHT22;27178;49.460;10.850;2024-02-14T03:12:48;8.30;76.10
41437;DHT22;27178;49.460;10.850;2024-02-14T03:15:16;8.30;76.40
41437;DHT22;27178;49.460;10.850;2024-02-14T03:17:45;8.30;76.40
41437;DHT22;27178;49.460;10.850;2024-02-14T03:20:14;8.30;76.10
41437;DHT22;27178;49.460;10.850;2024-02-14T03:22:45;8.30;76.10
41437;DHT22;27178;49.460;10.850;2024-02-14T03:25:17;8.30;76.10
41437;DHT22;27178;49.460;10.850;2024-02-14T03:27:47;8.30;76.10
41437;DHT22;27178;49.460;10.850;2024-02-14T03:30:20;8.30;76.00
41437;DHT22;27178;49.460;10.850;2024-02-14T03:32:50;8.30;75.90
41437;DHT22;27178;49.460;10.850;2024-02-14T03:35:19;8.30;76.00
41437;DHT22;27178;49.460;10.850;2024-02-14T03:37:49;8.30;76.10
41437;DHT22;27178;49.460;10.850;2024-02-14T03:40:19;8.30;76.10
41437;DHT22;27178;49.460;10.850;2024-02-14T03:42:50;8.30;76.10
41437;DHT22;27178;49.460;10.850;2024-02-14T03:45:18;8.20;76.00
41437;DHT22;27178;49.460;10.850;2024-02-14T03:47:47;8.20;76.00
41437;DHT22;27178;49.460;10.850;2024-02-14T03:50:16;8.20;76.10
41437;DHT22;27178;49.460;10.850;2024-02-14T03:52:44;8.20;75.80
41437;DHT22;27178;49.460;10.850;2024-02-14T03:55:13;8.20;75.90
41437;DHT22;27178;49.460;10.850;2024-02-14T03:57:44;8.20;76.10
41437;DHT22;27178;49.460;10.850;2024-02-14T04:00:14;8.10;76.30
41437;DHT22;27178;49.460;10.850;2024-02-14T04:02:43;8.10;76.60
41437;DHT22;27178;49.460;10.850;2024-02-14T04:05:12;8.10;76.70
41437;DHT22;27178;49.460;10.850;2024-02-14T04:07:40;8.10;76.80
41437;DHT22;27178;49.460;10.850;2024-02-14T04:10:11;8.10;76.80
41437;DHT22;27178;49.460;10.850;2024-02-14T04:12:40;8.10;76.90
41437;DHT22;27178;49.460;10.850;2024-02-14T04:15:09;8.10;77.00
41437;DHT22;27178;49.460;10.850;2024-02-14T04:17:39;8.10;77.00
41437;DHT22;27178;49.460;10.850;2024-02-14T04:20:08;8.20;77.10
41437;DHT22;27178;49.460;10.850;2024-02-14T04:22:37;8.20;77.20
41437;DHT22;27178;49.460;10.850;2024-02-14T04:25:07;8.20;77.00
41437;DHT22;27178;49.460;10.850;2024-02-14T04:27:36;8.30;77.00
41437;DHT22;27178;49.460;10.850;2024-02-14T04:30:06;8.30;77.00
41437;DHT22;27178;49.460;10.850;2024-02-14T04:32:34;8.30;77.00
41437;DHT22;27178;49.460;10.850;2024-02-14T04:35:04;8.30;76.80
41437;DHT22;27178;49.460;10.850;2024-02-14T04:37:33;8.30;76.80
41437;DHT22;27178;49.460;10.850;2024-02-14T04:40:01;8.40;76.80
41437;DHT22;27178;49.460;10.850;2024-02-14T04:42:30;8.40;76.80
41437;DHT22;27178;49.460;10.850;2024-02-14T04:45:00;8.40;76.80
41437;DHT22;27178;49.460;10.850;2024-02-14T04:47:28;8.40;76.80
41437;DHT22;27178;49.460;10.850;2024-02-14T04:49:58;8.40;76.80
41437;DHT22;27178;49.460;10.850;2024-02-14T04:52:28;8.50;76.80
41437;DHT22;27178;49.460;10.850;2024-02-14T04:54:57;8.50;76.70
41437;DHT22;27178;49.460;10.850;2024-02-14T04:57:25;8.50;76.60
41437;DHT22;27178;49.460;10.850;2024-02-14T04:59:53;8.50;76.60
41437;DHT22;27178;49.460;10.850;2024-02-14T05:02:22;8.50;76.50
41437;DHT22;27178;49.460;10.850;2024-02-14T05:04:50;8.50;76.50
41437;DHT22;27178;49.460;10.850;2024-02-14T05:07:18;8.60;76.60
41437;DHT22;27178;49.460;10.850;2024-02-14T05:09:48;8.60;76.50
41437;DHT22;27178;49.460;10.850;2024-02-14T05:12:18;8.60;76.50
41437;DHT22;27178;49.460;10.850;2024-02-14T05:14:47;8.60;76.50
41437;DHT22;27178;49.460;10.850;2024-02-14T05:17:16;8.60;76.50
41437;DHT22;27178;49.460;10.850;2024-02-14T05:19:44;8.60;76.50
41437;DHT22;27178;49.460;10.850;2024-02-14T05:22:13;8.60;76.50
41437;DHT22;27178;49.460;10.850;2024-02-14T05:24:41;8.60;76.40
41437;DHT22;27178;49.460;10.850;2024-02-14T05:27:11;8.60;76.40
41437;DHT22;27178;49.460;10.850;2024-02-14T05:29:39;8.60;76.40
41437;DHT22;27178;49.460;10.850;2024-02-14T05:32:07;8.60;76.50
41437;DHT22;27178;49.460;10.850;2024-02-14T05:34:37;8.60;76.50
41437;DHT22;27178;49.460;10.850;2024-02-14T05:37:05;8.60;76.60
41437;DHT22;27178;49.460;10.850;2024-02-14T05:39:35;8.60;76.50
41437;DHT22;27178;49.460;10.850;2024-02-14T05:42:04;8.60;76.50
41437;DHT22;27178;49.460;10.850;2024-02-14T05:44:35;8.60;76.60
41437;DHT22;27178;49.460;10.850;2024-02-14T05:47:03;8.60;76.60
41437;DHT22;27178;49.460;10.850;2024-02-14T05:49:32;8.60;76.60
41437;DHT22;27178;49.460;10.850;2024-02-14T05:52:00;8.70;76.70
41437;DHT22;27178;49.460;10.850;2024-02-14T05:54:29;8.70;76.60
41437;DHT22;27178;49.460;10.850;2024-02-14T05:56:57;8.70;76.70
41437;DHT22;27178;49.460;10.850;2024-02-14T05:59:25;8.70;76.70
41437;DHT22;27178;49.460;10.850;2024-02-14T06:01:55;8.70;76.70
41437;DHT22;27178;49.460;10.850;2024-02-14T06:04:23;8.70;76.60
41437;DHT22;27178;49.460;10.850;2024-02-14T06:06:52;8.70;76.60
41437;DHT22;27178;49.460;10.850;2024-02-14T06:09:20;8.70;77.50
41437;DHT22;27178;49.460;10.850;2024-02-14T06:11:48;8.70;76.60
41437;DHT22;27178;49.460;10.850;2024-02-14T06:14:17;8.70;76.60
41437;DHT22;27178;49.460;10.850;2024-02-14T06:16:45;8.70;76.60
41437;DHT22;27178;49.460;10.850;2024-02-14T06:19:15;8.70;76.70
41437;DHT22;27178;49.460;10.850;2024-02-14T06:21:43;8.80;76.70
41437;DHT22;27178;49.460;10.850;2024-02-14T06:24:12;8.80;76.70
41437;DHT22;27178;49.460;10.850;2024-02-14T06:26:40;8.80;76.70
41437;DHT22;27178;49.460;10.850;2024-02-14T06:29:09;8.80;76.50
41437;DHT22;27178;49.460;10.850;2024-02-14T06:31:37;8.80;76.60
41437;DHT22;27178;49.460;10.850;2024-02-14T06:34:05;8.80;76.70
41437;DHT22;27178;49.460;10.850;2024-02-14T06:36:37;8.80;77.60
41437;DHT22;27178;49.460;10.850;2024-02-14T06:39:07;8.80;76.70
41437;DHT22;27178;49.460;10.850;2024-02-14T06:41:36;8.80;76.70
41437;DHT22;27178;49.460;10.850;2024-02-14T06:44:04;8.80;76.60
41437;DHT22;27178;49.460;10.850;2024-02-14T06:46:33;8.80;76.70
41437;DHT22;27178;49.460;10.850;2024-02-14T06:49:02;8.80;76.70
41437;DHT22;27178;49.460;10.850;2024-02-14T06:51:31;8.80;76.70
41437;DHT22;27178;49.460;10.850;2024-02-14T06:54:01;9.10;77.00
41437;DHT22;27178;49.460;10.850;2024-02-14T06:56:30;8.80;77.80
41437;DHT22;27178;49.460;10.850;2024-02-14T06:58:59;8.90;76.90
41437;DHT22;27178;49.460;10.850;2024-02-14T07:01:29;8.90;76.90
41437;DHT22;27178;49.460;10.850;2024-02-14T07:03:57;8.90;76.90
41437;DHT22;27178;49.460;10.850;2024-02-14T07:06:26;8.90;76.90
41437;DHT22;27178;49.460;10.850;2024-02-14T07:08:55;8.90;76.90
41437;DHT22;27178;49.460;10.850;2024-02-14T07:11:24;8.90;76.90
41437;DHT22;27178;49.460;10.850;2024-02-14T07:13:53;8.90;76.90
41437;DHT22;27178;49.460;10.850;2024-02-14T07:16:21;9.00;76.90
41437;DHT22;27178;49.460;10.850;2024-02-14T07:18:49;9.00;76.90
41437;DHT22;27178;49.460;10.850;2024-02-14T07:21:18;9.00;77.00
41437;DHT22;27178;49.460;10.850;2024-02-14T07:23:46;9.00;77.00
41437;DHT22;27178;49.460;10.850;2024-02-14T07:26:15;9.00;76.90
41437;DHT22;27178;49.460;10.850;2024-02-14T07:28:45;8.40;76.60
41437;DHT22;27178;49.460;10.850;2024-02-14T07:31:13;9.00;76.90
41437;DHT22;27178;49.460;10.850;2024-02-14T07:33:41;9.00;76.90
41437;DHT22;27178;49.460;10.850;2024-02-14T07:36:11;9.10;77.00
41437;DHT22;27178;49.460;10.850;2024-02-14T07:38:39;9.10;77.00
41437;DHT22;27178;49.460;10.850;2024-02-14T07:41:09;9.10;76.90
41437;DHT22;27178;49.460;10.850;2024-02-14T07:43:37;9.10;77.00
41437;DHT22;27178;49.460;10.850;2024-02-14T07:46:07;9.10;77.00
41437;DHT22;27178;49.460;10.850;2024-02-14T07:48:36;9.10;77.00
41437;DHT22;27178;49.460;10.850;2024-02-14T07:51:07;9.20;77.10
41437;DHT22;27178;49.460;10.850;2024-02-14T07:53:35;9.20;77.10
41437;DHT22;27178;49.460;10.850;2024-02-14T07:56:04;9.30;77.10
41437;DHT22;27178;49.460;10.850;2024-02-14T07:58:32;9.30;77.20
41437;DHT22;27178;49.460;10.850;2024-02-14T08:01:01;9.30;77.10
41437;DHT22;27178;49.460;10.850;2024-02-14T08:03:32;9.30;77.20
41437;DHT22;27178;49.460;10.850;2024-02-14T08:06:01;9.30;77.20
41437;DHT22;27178;49.460;10.850;2024-02-14T08:08:29;9.40;77.30
41437;DHT22;27178;49.460;10.850;2024-02-14T08:10:58;9.40;77.20
41437;DHT22;27178;49.460;10.850;2024-02-14T08:13:26;9.40;77.10
41437;DHT22;27178;49.460;10.850;2024-02-14T08:15:55;9.40;77.10
41437;DHT22;27178;49.460;10.850;2024-02-14T08:18:25;9.40;77.10
41437;DHT22;27178;49.460;10.850;2024-02-14T08:20:55;9.50;77.20
41437;DHT22;27178;49.460;10.850;2024-02-14T08:23:24;9.50;77.20
41437;DHT22;27178;49.460;10.850;2024-02-14T08:25:52;9.50;77.20
41437;DHT22;27178;49.460;10.850;2024-02-14T08:28:21;9.50;77.20
41437;DHT22;27178;49.460;10.850;2024-02-14T08:30:49;9.60;77.30
41437;DHT22;27178;49.460;10.850;2024-02-14T08:33:18;9.60;77.30
41437;DHT22;27178;49.460;10.850;2024-02-14T08:35:47;9.60;77.30
41437;DHT22;27178;49.460;10.850;2024-02-14T08:38:17;9.60;77.30
41437;DHT22;27178;49.460;10.850;2024-02-14T08:40:45;9.60;77.30
41437;DHT22;27178;49.460;10.850;2024-02-14T08:43:13;9.70;77.30
41437;DHT22;27178;49.460;10.850;2024-02-14T08:45:42;9.70;77.30
41437;DHT22;27178;49.460;10.850;2024-02-14T08:48:10;9.70;77.30
41437;DHT22;27178;49.460;10.850;2024-02-14T08:50:39;9.70;77.20
41437;DHT22;27178;49.460;10.850;2024-02-14T08:53:07;9.70;77.30
41437;DHT22;27178;49.460;10.850;2024-02-14T08:55:37;9.70;77.30
41437;DHT22;27178;49.460;10.850;2024-02-14T08:58:06;9.80;77.40
41437;DHT22;27178;49.460;10.850;2024-02-14T09:00:36;9.80;77.40
41437;DHT22;27178;49.460;10.850;2024-02-14T09:03:05;9.80;77.40
41437;DHT22;27178;49.460;10.850;2024-02-14T09:05:34;9.90;77.40
41437;DHT22;27178;49.460;10.850;2024-02-14T09:08:04;9.90;77.40
41437;DHT22;27178;49.460;10.850;2024-02-14T09:10:32;9.90;77.40
41437;DHT22;27178;49.460;10.850;2024-02-14T09:13:02;9.90;77.30
41437;DHT22;27178;49.460;10.850;2024-02-14T09:15:31;10.00;77.30
41437;DHT22;27178;49.460;10.850;2024-02-14T09:17:59;10.00;77.30
41437;DHT22;27178;49.460;10.850;2024-02-14T09:20:30;10.00;77.30
41437;DHT22;27178;49.460;10.850;2024-02-14T09:22:59;10.10;77.40
41437;DHT22;27178;49.460;10.850;2024-02-14T09:25:27;10.10;77.50
41437;DHT22;27178;49.460;10.850;2024-02-14T09:27:55;10.20;77.60
41437;DHT22;27178;49.460;10.850;2024-02-14T09:30:25;10.20;77.40
41437;DHT22;27178;49.460;10.850;2024-02-14T09:33:04;10.20;77.40
41437;DHT22;27178;49.460;10.850;2024-02-14T09:35:33;10.30;77.40
41437;DHT22;27178;49.460;10.850;2024-02-14T09:38:02;10.30;77.40
41437;DHT22;27178;49.460;10.850;2024-02-14T09:40:30;10.40;77.50
41437;DHT22;27178;49.460;10.850;2024-02-14T09:43:02;10.40;77.50
41437;DHT22;27178;49.460;10.850;2024-02-14T09:45:33;10.50;77.60
41437;DHT22;27178;49.460;10.850;2024-02-14T09:48:01;10.50;77.30
41437;DHT22;27178;49.460;10.850;2024-02-14T09:50:31;10.50;77.20
41437;DHT22;27178;49.460;10.850;2024-02-14T09:53:00;10.60;77.00
41437;DHT22;27178;49.460;10.850;2024-02-14T09:55:29;10.60;76.90
41437;DHT22;27178;49.460;10.850;2024-02-14T09:57:58;10.70;76.90
41437;DHT22;27178;49.460;10.850;2024-02-14T10:00:33;10.70;76.80
41437;DHT22;27178;49.460;10.850;2024-02-14T10:03:01;10.70;76.70
41437;DHT22;27178;49.460;10.850;2024-02-14T10:05:30;10.80;76.80
41437;DHT22;27178;49.460;10.850;2024-02-14T10:07:58;10.80;76.60
41437;DHT22;27178;49.460;10.850;2024-02-14T10:10:28;10.80;76.80
41437;DHT22;27178;49.460;10.850;2024-02-14T10:12:57;10.90;77.00
41437;DHT22;27178;49.460;10.850;2024-02-14T10:15:25;11.00;77.10
41437;DHT22;27178;49.460;10.850;2024-02-14T10:17:55;11.00;77.20
41437;DHT22;27178;49.460;10.850;2024-02-14T10:20:24;11.00;77.20
41437;DHT22;27178;49.460;10.850;2024-02-14T10:23:00;11.10;77.20
41437;DHT22;27178;49.460;10.850;2024-02-14T10:25:29;11.10;77.50
41437;DHT22;27178;49.460;10.850;2024-02-14T10:28:03;11.20;77.70
41437;DHT22;27178;49.460;10.850;2024-02-14T10:30:31;11.20;77.80
41437;DHT22;27178;49.460;10.850;2024-02-14T10:33:02;11.30;77.90
41437;DHT22;27178;49.460;10.850;2024-02-14T10:35:47;11.30;78.10
41437;DHT22;27178;49.460;10.850;2024-02-14T10:38:19;11.40;78.00
41437;DHT22;27178;49.460;10.850;2024-02-14T10:40:48;11.40;77.90
41437;DHT22;27178;49.460;10.850;2024-02-14T10:43:16;11.50;77.90
41437;DHT22;27178;49.460;10.850;2024-02-14T10:45:45;11.50;77.70
41437;DHT22;27178;49.460;10.850;2024-02-14T10:48:15;11.60;77.70
41437;DHT22;27178;49.460;10.850;2024-02-14T10:50:47;11.60;77.70
41437;DHT22;27178;49.460;10.850;2024-02-14T10:53:16;11.60;77.70
41437;DHT22;27178;49.460;10.850;2024-02-14T10:55:48;11.60;77.70
41437;DHT22;27178;49.460;10.850;2024-02-14T10:58:17;11.70;77.90
41437;DHT22;27178;49.460;10.850;2024-02-14T11:00:47;11.70;77.90
41437;DHT22;27178;49.460;10.850;2024-02-14T11:03:17;11.70;77.80
41437;DHT22;27178;49.460;10.850;2024-02-14T11:05:47;11.70;77.80
41437;DHT22;27178;49.460;10.850;2024-02-14T11:08:19;11.70;77.80
41437;DHT22;27178;49.460;10.850;2024-02-14T11:10:53;11.80;78.00
41437;DHT22;27178;49.460;10.850;2024-02-14T11:13:25;11.80;78.00
41437;DHT22;27178;49.460;10.850;2024-02-14T11:15:54;11.80;78.10
41437;DHT22;27178;49.460;10.850;2024-02-14T11:18:27;11.80;78.30
41437;DHT22;27178;49.460;10.850;2024-02-14T11:20:57;11.90;78.50
41437;DHT22;27178;49.460;10.850;2024-02-14T11:23:30;11.90;78.50
41437;DHT22;27178;49.460;10.850;2024-02-14T11:26:00;11.90;78.50
41437;DHT22;27178;49.460;10.850;2024-02-14T11:28:30;11.90;78.70
41437;DHT22;27178;49.460;10.850;2024-02-14T11:31:00;11.90;78.70
41437;DHT22;27178;49.460;10.850;2024-02-14T11:33:32;12.00;78.80
41437;DHT22;27178;49.460;10.850;2024-02-14T11:36:08;12.00;78.80
41437;DHT22;27178;49.460;10.850;2024-02-14T11:38:39;12.00;78.80
41437;DHT22;27178;49.460;10.850;2024-02-14T11:41:10;12.10;78.80
41437;DHT22;27178;49.460;10.850;2024-02-14T11:43:39;12.10;78.80
41437;DHT22;27178;49.460;10.850;2024-02-14T11:46:07;12.20;79.00
41437;DHT22;27178;49.460;10.850;2024-02-14T11:48:38;12.20;78.90
41437;DHT22;27178;49.460;10.850;2024-02-14T11:51:07;12.20;78.80
41437;DHT22;27178;49.460;10.850;2024-02-14T11:53:38;12.30;78.90
41437;DHT22;27178;49.460;10.850;2024-02-14T11:56:07;12.30;78.90
41437;DHT22;27178;49.460;10.850;2024-02-14T11:58:36;12.40;78.90
41437;DHT22;27178;49.460;10.850;2024-02-14T12:01:05;12.40;78.90
41437;DHT22;27178;49.460;10.850;2024-02-14T12:03:33;12.50;78.80
41437;DHT22;27178;49.460;10.850;2024-02-14T12:06:04;12.50;78.80
41437;DHT22;27178;49.460;10.850;2024-02-14T12:08:34;12.50;78.80
41437;DHT22;27178;49.460;10.850;2024-02-14T12:11:02;12.60;78.60
41437;DHT22;27178;49.460;10.850;2024-02-14T12:13:36;12.60;78.50
41437;DHT22;27178;49.460;10.850;2024-02-14T12:16:10;12.60;78.40
41437;DHT22;27178;49.460;10.850;2024-02-14T12:18:39;12.70;78.40
41437;DHT22;27178;49.460;10.850;2024-02-14T12:21:09;12.70;78.40
41437;DHT22;27178;49.460;10.850;2024-02-14T12:23:39;12.70;78.50
41437;DHT22;27178;49.460;10.850;2024-02-14T12:26:07;12.70;78.40
41437;DHT22;27178;49.460;10.850;2024-02-14T12:28:46;12.70;78.50
41437;DHT22;27178;49.460;10.850;2024-02-14T12:31:22;12.80;78.70
41437;DHT22;27178;49.460;10.850;2024-02-14T12:33:50;12.80;78.50
41437;DHT22;27178;49.460;10.850;2024-02-14T12:36:23;12.80;78.60
41437;DHT22;27178;49.460;10.850;2024-02-14T12:38:51;12.90;78.80
41437;DHT22;27178;49.460;10.850;2024-02-14T12:41:20;12.90;78.50
41437;DHT22;27178;49.460;10.850;2024-02-14T12:43:49;12.90;78.40
41437;DHT22;27178;49.460;10.850;2024-02-14T12:46:17;12.90;78.60
41437;DHT22;27178;49.460;10.850;2024-02-14T12:48:46;12.90;78.60
41437;DHT22;27178;49.460;10.850;2024-02-14T12:51:15;12.90;78.50
41437;DHT22;27178;49.460;10.850;2024-02-14T12:53:45;12.90;78.40
41437;DHT22;27178;49.460;10.850;2024-02-14T12:56:13;12.90;78.50
41437;DHT22;27178;49.460;10.850;2024-02-14T12:58:42;12.90;78.60
41437;DHT22;27178;49.460;10.850;2024-02-14T13:01:11;12.90;78.50
41437;DHT22;27178;49.460;10.850;2024-02-14T13:03:41;13.00;78.60
41437;DHT22;27178;49.460;10.850;2024-02-14T13:06:09;13.00;78.50
41437;DHT22;27178;49.460;10.850;2024-02-14T13:08:38;13.00;78.40
41437;DHT22;27178;49.460;10.850;2024-02-14T13:11:08;13.00;78.40
41437;DHT22;27178;49.460;10.850;2024-02-14T13:13:36;13.00;78.60
41437;DHT22;27178;49.460;10.850;2024-02-14T13:16:05;13.00;78.60
41437;DHT22;27178;49.460;10.850;2024-02-14T13:18:34;13.00;79.30
41437;DHT22;27178;49.460;10.850;2024-02-14T13:21:05;13.00;78.40
41437;DHT22;27178;49.460;10.850;2024-02-14T13:23:33;13.00;78.40
41437;DHT22;27178;49.460;10.850;2024-02-14T13:26:02;13.00;78.60
41437;DHT22;27178;49.460;10.850;2024-02-14T13:28:32;13.00;78.60
41437;DHT22;27178;49.460;10.850;2024-02-14T13:31:00;13.00;78.70
41437;DHT22;27178;49.460;10.850;2024-02-14T13:33:29;13.00;78.60
41437;DHT22;27178;49.460;10.850;2024-02-14T13:35:57;13.00;78.50
41437;DHT22;27178;49.460;10.850;2024-02-14T13:38:26;13.00;78.50
41437;DHT22;27178;49.460;10.850;2024-02-14T13:40:54;13.00;78.60
41437;DHT22;27178;49.460;10.850;2024-02-14T13:43:23;12.90;78.60
41437;DHT22;27178;49.460;10.850;2024-02-14T13:45:53;12.90;78.70
41437;DHT22;27178;49.460;10.850;2024-02-14T13:48:21;12.90;78.70
41437;DHT22;27178;49.460;10.850;2024-02-14T13:50:50;12.90;78.90
41437;DHT22;27178;49.460;10.850;2024-02-14T13:53:19;12.90;79.10
41437;DHT22;27178;49.460;10.850;2024-02-14T13:55:50;12.90;79.20
41437;DHT22;27178;49.460;10.850;2024-02-14T13:58:18;12.90;79.30
41437;DHT22;27178;49.460;10.850;2024-02-14T14:00:47;12.80;79.30
41437;DHT22;27178;49.460;10.850;2024-02-14T14:03:17;12.80;79.30
41437;DHT22;27178;49.460;10.850;2024-02-14T14:05:45;12.80;79.40
41437;DHT22;27178;49.460;10.850;2024-02-14T14:08:14;12.80;79.60
41437;DHT22;27178;49.460;10.850;2024-02-14T14:10:42;12.80;79.70
41437;DHT22;27178;49.460;10.850;2024-02-14T14:13:12;12.80;79.60
41437;DHT22;27178;49.460;10.850;2024-02-14T14:15:41;12.80;79.60
41437;DHT22;27178;49.460;10.850;2024-02-14T14:18:09;12.80;79.60
41437;DHT22;27178;49.460;10.850;2024-02-14T14:20:39;12.80;79.70
41437;DHT22;27178;49.460;10.850;2024-02-14T14:23:08;12.80;79.70
41437;DHT22;27178;49.460;10.850;2024-02-14T14:25:36;12.80;79.60
41437;DHT22;27178;49.460;10.850;2024-02-14T14:28:05;12.80;79.70
41437;DHT22;27178;49.460;10.850;2024-02-14T14:30:34;12.80;79.70
41437;DHT22;27178;49.460;10.850;2024-02-14T14:33:03;12.80;79.60
41437;DHT22;27178;49.460;10.850;2024-02-14T14:35:32;12.80;79.70
41437;DHT22;27178;49.460;10.850;2024-02-14T14:38:04;12.80;79.50
41437;DHT22;27178;49.460;10.850;2024-02-14T14:40:33;12.80;79.70
41437;DHT22;27178;49.460;10.850;2024-02-14T14:43:03;12.80;79.60
41437;DHT22;27178;49.460;10.850;2024-02-14T14:45:31;12.80;79.70
41437;DHT22;27178;49.460;10.850;2024-02-14T14:48:00;12.80;79.70
41437;DHT22;27178;49.460;10.850;2024-02-14T14:50:30;12.80;79.80
41437;DHT22;27178;49.460;10.850;2024-02-14T14:52:59;12.80;79.90
41437;DHT22;27178;49.460;10.850;2024-02-14T14:55:50;12.80;79.90
41437;DHT22;27178;49.460;10.850;2024-02-14T14:58:18;12.90;80.00
41437;DHT22;27178;49.460;10.850;2024-02-14T15:00:53;12.80;79.70
41437;DHT22;27178;49.460;10.850;2024-02-14T15:03:23;12.90;79.90
41437;DHT22;27178;49.460;10.850;2024-02-14T15:05:51;12.80;79.70
41437;DHT22;27178;49.460;10.850;2024-02-14T15:08:21;12.80;80.00
41437;DHT22;27178;49.460;10.850;2024-02-14T15:10:54;12.90;80.00
41437;DHT22;27178;49.460;10.850;2024-02-14T15:13:24;12.90;80.10
41437;DHT22;27178;49.460;10.850;2024-02-14T15:15:54;12.90;80.00
41437;DHT22;27178;49.460;10.850;2024-02-14T15:18:25;12.90;80.10
41437;DHT22;27178;49.460;10.850;2024-02-14T15:20:53;12.90;80.20
41437;DHT22;27178;49.460;10.850;2024-02-14T15:23:22;12.90;80.20
41437;DHT22;27178;49.460;10.850;2024-02-14T15:25:51;12.90;80.20
41437;DHT22;27178;49.460;10.850;2024-02-14T15:28:22;12.90;80.20
41437;DHT22;27178;49.460;10.850;2024-02-14T15:30:53;12.90;80.20
41437;DHT22;27178;49.460;10.850;2024-02-14T15:33:39;12.90;80.20
41437;DHT22;27178;49.460;10.850;2024-02-14T15:36:08;13.00;81.30
41437;DHT22;27178;49.460;10.850;2024-02-14T15:38:37;12.90;80.40